Airfield :
LOGIN :

Register | Disclaimer

   EN    FR    IT 

 










Legend :    VFR   Marginal VFR   IFR   Intensive IFR   Very Intensive IFR
Visi :
Ceiling :
>= 8 km
>= 3000ft
5 to 8 km
1000 to 3000 ft
1500m to 5 km
500 to 1000 ft
800 to 1500m
200 to 500 ft
< 800m
< 200 ft
Symbols :   Thunderstorms  Fog  Heavy snow  Heavy precipitations  Wind > 20 kt
SIGMETs :     Misc.  Thunderstorms  Icing  Turbulence  Mountain Waves  Volcanic Ashes






- Airport Elevation : 392 ft
- IATA code : CDG


LFPG - Paris-Aeroport Charles De Gaulle

CURRENT METAR :
  • 241530Z 19014KT 9999 FEW016TCU SCT025 BKN100 16/11 Q0999 TEMPO 20017G30KT 4000 SHRA BKN020CB

EXPIRED METARs :
  • 241500Z 18011KT 9999 FEW012TCU SCT013 BKN080 16/13 Q1000 TEMPO 20017G30KT 4000 SHRA BKN020TCU
  • 241430Z 19012KT 9999 -SHRA FEW013 BKN073 16/13 Q1001 TEMPO 20017G30KT 4000 SHRA BKN020TCU
  • 241400Z 20015KT 9999 SCT018 BKN090 16/12 Q1001 TEMPO 20017G30KT 4000 SHRA BKN020TCU
  • 241330Z 21015KT 9999 SCT015 BKN060 16/13 Q1002 TEMPO 20017G30KT 4000 SHRA BKN020TCU
  • 241300Z 21016KT 9999 SCT015 BKN060 15/13 Q1002 TEMPO 20017G30KT 4000 SHRA BKN020TCU

TAF TAF LFPG
Valid from the 24 at 12:00 until the 25 at 18:00 UTC


241100Z 2412/2518 20017G30KT 9999 BKN020 BKN070 TX17/2412Z TN08/2502Z
TEMPO 2412/2420 4000 SHRA BKN020CB
PROB30
TEMPO 2413/2419 26020G40KT 2000 TSRAGS BKN012 BKN016CB
BECMG 2419/2421 23012KT
TEMPO 2505/2508 20015G25KT 4000 RA BKN012 SCT014TCU
BECMG 2508/2510 31020G30KT
TEMPO 2508/2518 4000 SHRA BKN012 BKN020CB
PROB30
TEMPO 2510/2515 2000 TSRA
ATIS : +33 1 48 62 10 92



MET'MAP, your aeronautical weather chart ! - Copyright ORBIFLY December 2007 - Disclaimer

ORBIFLY MET'MAP TEAM :

Programming & Development : Alexandra Zaïnal
Concept & original design : Baudouin d'Aumeries
Assistance for programming : Marc-Olivier Méhu
Technical & hardware support : Manuel Goepfert

Contact : metmap@orbifly.com




SOURCES & CREDITS :

   NOAA